KVAD/VAD METAR and TAF weather

Enter ICAO airport designator
Station Type Date Time Source
KVAD METAR 2020/09/22 15:56 UTC NOAA

KVAD 221556Z AUTO 06008KT 10SM CLR 24/16 A3020 RMK AO2 SLP228 T02370157 $


Station Type Date Time Source
KVAD Decoded METAR 2020/09/22 15:56 UTC NOAA

Moody Air Force Base, GA, United States (KVAD) 30-58N 083-12W 71M
Sep 22, 2020 - 11:56 AM EDT / 2020.09.22 1556 UTC
Wind: from the ENE (060 degrees) at 9 MPH (8 KT):0
Visibility: 10 mile(s):0
Sky conditions: clear
Temperature: 74.7 F (23.7 C)
Dew Point: 60.3 F (15.7 C)
Relative Humidity: 60%
Pressure (altimeter): 30.2 in. Hg (1022 hPa)
ob: KVAD 221556Z AUTO 06008KT 10SM CLR 24/16 A3020 RMK AO2 SLP228 T02370157
cycle: 16

Station Type Date Time Source
KVAD TAF 2020/09/22 16:29 UTC NOAA

TAF KVAD 221600Z 2216/2322 07010G20KT 9999 SCT250 QNH3011INS
BECMG 2221/2222 07009KT 9999 SCT250 QNH3005INS
BECMG 2303/2304 08009KT 9999 BKN180 QNH3006INS
BECMG 2309/2310 05009KT 9999 BKN140 QNH3006INS TX26/2220Z TN17/2308Z

Example: see airport list